Time;durP1;ratioP1;P1;durP2;ratioP2;P2;SDS_P1;SDS_P2;PMS_P1;PMS_P2;Temp;Humidity;BMP_temperature;BMP_pressure;BME280_temperature;BME280_humidity;BME280_pressure;Samples;Min_cycle;Max_cycle;Signal;HPM_P1;HPM_P2
2021/03/28 00:00:58;;;;;;;;;;;17.90;50.90;;;;;;5004421;28;19918;-62
2021/03/28 00:03:25;;;;;;;;;;;17.90;50.90;;;;;;5003255;28;19921;-63
2021/03/28 00:05:51;;;;;;;;;;;17.90;51.00;;;;;;5002827;28;19967;-62
2021/03/28 00:08:21;;;;;;;;;;;17.90;50.90;;;;;;5003841;28;19917;-62
2021/03/28 00:10:47;;;;;;;;;;;17.90;50.90;;;;;;5002462;28;19925;-62
2021/03/28 00:13:25;;;;;;;;;;;17.90;50.90;;;;;;5002298;28;19921;-62
2021/03/28 00:15:57;;;;;;;;;;;17.90;50.90;;;;;;5002744;28;19944;-62
2021/03/28 00:18:23;;;;;;;;;;;17.80;50.80;;;;;;5003599;28;19913;-62
2021/03/28 00:20:50;;;;;;;;;;;17.90;50.90;;;;;;5002712;28;20423;-62
2021/03/28 00:23:22;;;;;;;;;;;17.90;50.80;;;;;;5001873;28;19924;-62
2021/03/28 00:25:50;;;;;;;;;;;17.90;50.70;;;;;;5003051;28;20355;-62
2021/03/28 00:28:23;;;;;;;;;;;17.90;50.70;;;;;;5003336;28;19935;-62
2021/03/28 00:30:48;;;;;;;;;;;17.80;50.70;;;;;;5001881;28;19964;-62
2021/03/28 00:33:19;;;;;;;;;;;17.90;50.70;;;;;;5001894;28;20381;-62
2021/03/28 00:35:47;;;;;;;;;;;17.80;50.60;;;;;;5002984;28;20422;-62
2021/03/28 00:38:23;;;;;;;;;;;17.90;50.70;;;;;;5003635;28;19917;-62
2021/03/28 00:41:04;;;;;;;;;;;17.90;50.70;;;;;;5003370;28;19931;-62
2021/03/28 00:43:29;;;;;;;;;;;17.80;50.70;;;;;;5004969;28;19913;-62
2021/03/28 00:45:56;;;;;;;;;;;17.80;50.70;;;;;;5006722;28;20483;-62
2021/03/28 00:48:23;;;;;;;;;;;17.90;50.70;;;;;;5006634;28;19914;-62
2021/03/28 00:51:01;;;;;;;;;;;17.80;50.60;;;;;;5007264;28;19924;-62
2021/03/28 00:53:31;;;;;;;;;;;17.80;50.60;;;;;;5005122;28;19971;-63
2021/03/28 00:55:57;;;;;;;;;;;17.90;50.60;;;;;;5006110;28;19921;-62
2021/03/28 00:58:24;;;;;;;;;;;17.80;50.50;;;;;;5004738;28;19909;-62
2021/03/28 01:01:08;;;;;;;;;;;17.80;50.50;;;;;;5005816;28;20532;-62
2021/03/28 01:03:37;;;;;;;;;;;17.80;50.50;;;;;;5005976;28;20024;-62
2021/03/28 01:06:12;;;;;;;;;;;17.80;50.50;;;;;;5005402;28;19914;-62
2021/03/28 01:08:39;;;;;;;;;;;17.80;50.40;;;;;;5005957;28;19920;-62
2021/03/28 01:11:10;;;;;;;;;;;17.80;50.40;;;;;;5005757;28;19938;-62
2021/03/28 01:13:44;;;;;;;;;;;17.80;50.40;;;;;;5006245;28;19921;-62
2021/03/28 01:16:13;;;;;;;;;;;17.80;50.40;;;;;;5007198;28;19909;-61
2021/03/28 01:18:40;;;;;;;;;;;17.80;50.30;;;;;;5006238;28;20372;-61
2021/03/28 01:21:08;;;;;;;;;;;17.80;50.40;;;;;;5005855;28;19962;-62
2021/03/28 01:23:37;;;;;;;;;;;17.80;50.40;;;;;;5006402;28;19920;-62
2021/03/28 01:26:12;;;;;;;;;;;17.80;50.40;;;;;;5007122;28;19933;-62
2021/03/28 01:28:44;;;;;;;;;;;17.70;50.50;;;;;;5004559;28;19917;-62
2021/03/28 01:31:15;;;;;;;;;;;17.70;50.60;;;;;;5005976;28;19925;-62
2021/03/28 01:33:57;;;;;;;;;;;17.60;51.20;;;;;;4996205;28;20564;-62
2021/03/28 01:36:28;;;;;;;;;;;17.70;50.60;;;;;;4987053;28;19910;-62
2021/03/28 01:38:58;;;;;;;;;;;17.70;50.40;;;;;;5013276;28;20768;-62
2021/03/28 01:41:24;;;;;;;;;;;17.80;50.90;;;;;;5020137;28;19910;-62
2021/03/28 01:43:49;;;;;;;;;;;17.80;50.20;;;;;;5015671;28;19917;-62
2021/03/28 01:46:37;;;;;;;;;;;17.80;50.00;;;;;;4987848;28;19917;-62
2021/03/28 01:49:22;;;;;;;;;;;17.80;49.90;;;;;;4999153;28;20004;-62
2021/03/28 01:51:47;;;;;;;;;;;17.90;49.80;;;;;;5005989;28;19920;-62
2021/03/28 01:54:34;;;;;;;;;;;17.90;49.70;;;;;;5005494;28;20042;-62
2021/03/28 01:56:59;;;;;;;;;;;18.00;49.60;;;;;;5004438;28;19996;-62
2021/03/28 01:59:34;;;;;;;;;;;18.00;49.50;;;;;;5006430;28;20044;-62
2021/03/28 02:01:59;;;;;;;;;;;18.00;49.40;;;;;;4984786;28;19918;-63
2021/03/28 02:04:42;;;;;;;;;;;18.00;49.30;;;;;;5002033;28;19971;-62
2021/03/28 02:07:29;;;;;;;;;;;18.00;49.30;;;;;;4986221;28;19909;-62
2021/03/28 02:10:09;;;;;;;;;;;18.10;49.30;;;;;;4984326;28;20401;-62
2021/03/28 02:12:40;;;;;;;;;;;18.10;49.20;;;;;;4987124;28;19972;-62
2021/03/28 02:15:12;;;;;;;;;;;18.10;49.10;;;;;;5004164;28;20372;-62
2021/03/28 02:17:48;;;;;;;;;;;18.10;49.10;;;;;;5005688;28;19918;-62
2021/03/28 02:20:13;;;;;;;;;;;18.10;49.10;;;;;;5003821;28;19910;-62
2021/03/28 02:22:40;;;;;;;;;;;18.10;49.00;;;;;;5005058;28;19913;-62
2021/03/28 02:25:06;;;;;;;;;;;18.10;49.00;;;;;;5003787;28;19936;-62
2021/03/28 02:27:40;;;;;;;;;;;18.10;48.90;;;;;;5005403;28;20408;-62
2021/03/28 02:30:10;;;;;;;;;;;18.10;48.90;;;;;;5003930;28;19963;-62
2021/03/28 02:32:43;;;;;;;;;;;18.10;48.90;;;;;;5003725;28;20313;-62
2021/03/28 02:35:17;;;;;;;;;;;18.10;48.80;;;;;;4985818;28;20633;-62
2021/03/28 02:37:55;;;;;;;;;;;18.10;48.80;;;;;;4989499;28;19917;-62
2021/03/28 02:40:39;;;;;;;;;;;18.10;48.80;;;;;;4987734;28;20535;-62
2021/03/28 02:43:24;;;;;;;;;;;18.10;48.70;;;;;;5004557;28;19920;-62
2021/03/28 02:46:01;;;;;;;;;;;18.10;48.60;;;;;;5005480;28;19909;-62
2021/03/28 02:48:50;;;;;;;;;;;18.10;48.70;;;;;;5004571;28;20567;-62
2021/03/28 02:51:24;;;;;;;;;;;18.10;48.60;;;;;;5003614;28;20339;-63
2021/03/28 02:54:02;;;;;;;;;;;18.10;48.60;;;;;;5005141;28;20020;-62
2021/03/28 02:56:27;;;;;;;;;;;18.10;48.60;;;;;;4990162;28;19997;-62
2021/03/28 02:59:08;;;;;;;;;;;18.10;48.60;;;;;;4985705;28;19998;-62
2021/03/28 03:01:42;;;;;;;;;;;18.10;48.60;;;;;;4998600;28;20395;-62
2021/03/28 03:04:19;;;;;;;;;;;18.10;48.60;;;;;;4968276;28;19918;-62
2021/03/28 03:07:02;;;;;;;;;;;18.10;48.70;;;;;;4997564;28;19917;-62
2021/03/28 03:09:34;;;;;;;;;;;18.10;48.60;;;;;;4987992;28;19918;-62
2021/03/28 03:12:09;;;;;;;;;;;18.10;48.60;;;;;;4983742;28;20380;-62
2021/03/28 03:14:37;;;;;;;;;;;18.10;48.60;;;;;;4993760;28;19913;-63
2021/03/28 03:17:12;;;;;;;;;;;18.10;48.60;;;;;;5004125;28;19917;-63
2021/03/28 03:20:07;;;;;;;;;;;18.10;48.60;;;;;;4965519;28;20336;-61
2021/03/28 03:22:44;;;;;;;;;;;18.10;48.60;;;;;;4949907;28;20009;-62
2021/03/28 03:25:10;;;;;;;;;;;18.10;48.60;;;;;;4987856;28;19924;-62
2021/03/28 03:27:54;;;;;;;;;;;18.10;48.60;;;;;;5004675;28;19913;-62
2021/03/28 03:30:32;;;;;;;;;;;18.10;48.60;;;;;;5004043;28;19917;-62
2021/03/28 03:32:57;;;;;;;;;;;18.00;48.60;;;;;;5002828;28;19919;-62
2021/03/28 03:35:39;;;;;;;;;;;18.00;48.60;;;;;;5004899;28;19989;-62
2021/03/28 03:38:04;;;;;;;;;;;18.00;48.50;;;;;;5001832;28;19933;-62
2021/03/28 03:40:48;;;;;;;;;;;18.00;48.50;;;;;;5003504;28;19913;-62
2021/03/28 03:43:26;;;;;;;;;;;18.00;48.50;;;;;;5003559;28;19913;-62
2021/03/28 03:46:06;;;;;;;;;;;18.00;48.60;;;;;;5002526;28;19914;-62
2021/03/28 03:48:55;;;;;;;;;;;18.00;48.60;;;;;;5003436;28;20419;-62
2021/03/28 03:51:26;;;;;;;;;;;18.00;48.50;;;;;;5001688;28;19917;-62
2021/03/28 03:54:09;;;;;;;;;;;18.00;48.60;;;;;;4984882;28;19920;-62
2021/03/28 03:57:00;;;;;;;;;;;18.00;48.60;;;;;;4998545;28;19919;-62
2021/03/28 03:59:44;;;;;;;;;;;18.00;49.20;;;;;;5004074;28;19929;-61
2021/03/28 04:02:09;;;;;;;;;;;17.90;48.50;;;;;;5004045;28;19953;-62
2021/03/28 04:04:42;;;;;;;;;;;17.90;48.50;;;;;;5003264;28;19952;-62
2021/03/28 04:07:14;;;;;;;;;;;18.00;48.60;;;;;;5003281;28;19909;-62
2021/03/28 04:09:58;;;;;;;;;;;18.00;48.60;;;;;;5004041;28;20024;-61
2021/03/28 04:12:26;;;;;;;;;;;18.00;48.50;;;;;;5002565;28;19920;-62
2021/03/28 04:14:58;;;;;;;;;;;18.00;48.50;;;;;;5004559;28;19913;-62
2021/03/28 04:17:30;;;;;;;;;;;18.00;48.50;;;;;;5007384;28;19914;-62
2021/03/28 04:20:02;;;;;;;;;;;18.00;48.50;;;;;;5003963;28;19914;-62
2021/03/28 04:22:27;;;;;;;;;;;17.90;48.50;;;;;;5007657;28;19917;-62
2021/03/28 04:25:02;;;;;;;;;;;18.00;48.50;;;;;;5008884;28;19967;-62
2021/03/28 04:27:46;;;;;;;;;;;17.90;48.40;;;;;;5008607;28;20376;-62
2021/03/28 04:30:30;;;;;;;;;;;17.90;48.50;;;;;;5006223;28;20024;-62
2021/03/28 04:33:06;;;;;;;;;;;17.90;48.40;;;;;;5007359;28;19917;-62
2021/03/28 04:35:37;;;;;;;;;;;17.90;48.50;;;;;;5006262;28;19909;-62
2021/03/28 04:38:22;;;;;;;;;;;18.00;48.50;;;;;;5007745;28;19996;-62
2021/03/28 04:40:50;;;;;;;;;;;17.90;48.50;;;;;;5007709;28;19917;-62
2021/03/28 04:43:34;;;;;;;;;;;17.90;48.60;;;;;;5008175;28;19916;-62
2021/03/28 04:46:18;;;;;;;;;;;18.00;48.60;;;;;;5007835;28;19918;-62
2021/03/28 04:49:19;;;;;;;;;;;17.90;48.50;;;;;;5007043;28;20016;-62
2021/03/28 04:52:03;;;;;;;;;;;18.00;48.50;;;;;;5004445;28;19918;-62
2021/03/28 04:54:37;;;;;;;;;;;18.00;48.50;;;;;;5007522;28;20000;-62
2021/03/28 04:57:03;;;;;;;;;;;17.90;48.50;;;;;;4987991;28;19976;-62
2021/03/28 04:59:38;;;;;;;;;;;17.90;48.40;;;;;;5007495;28;20264;-62
2021/03/28 05:02:22;;;;;;;;;;;17.90;48.50;;;;;;5005101;28;20295;-62
2021/03/28 05:05:07;;;;;;;;;;;17.90;48.40;;;;;;5004910;28;20027;-62
2021/03/28 05:07:48;;;;;;;;;;;17.90;48.40;;;;;;5005235;28;20531;-62
2021/03/28 05:10:29;;;;;;;;;;;18.00;48.40;;;;;;5006068;28;19913;-62
2021/03/28 05:13:08;;;;;;;;;;;17.90;48.40;;;;;;4994882;28;19913;-62
2021/03/28 05:16:02;;;;;;;;;;;18.00;48.40;;;;;;5005049;28;19920;-62
2021/03/28 05:18:43;;;;;;;;;;;18.00;48.50;;;;;;5006470;28;19944;-62
2021/03/28 05:21:21;;;;;;;;;;;17.90;48.40;;;;;;5007111;28;19914;-62
2021/03/28 05:24:09;;;;;;;;;;;17.90;48.40;;;;;;5007200;28;19913;-62
2021/03/28 05:26:35;;;;;;;;;;;17.90;48.40;;;;;;5004978;28;20344;-61
2021/03/28 05:29:12;;;;;;;;;;;17.90;48.40;;;;;;4995775;28;19924;-62
2021/03/28 05:31:57;;;;;;;;;;;17.90;48.50;;;;;;4986901;28;20348;-62
2021/03/28 05:34:25;;;;;;;;;;;17.90;48.50;;;;;;5001582;28;19936;-61
2021/03/28 05:36:56;;;;;;;;;;;18.00;48.60;;;;;;5006811;28;19913;-61
2021/03/28 05:39:21;;;;;;;;;;;17.90;48.80;;;;;;4986903;28;20327;-62
2021/03/28 05:41:56;;;;;;;;;;;17.90;48.40;;;;;;4993329;28;19928;-62
2021/03/28 05:44:44;;;;;;;;;;;17.90;48.40;;;;;;5005379;28;19909;-62
2021/03/28 05:47:28;;;;;;;;;;;17.90;48.40;;;;;;5003920;28;20417;-62
2021/03/28 05:50:14;;;;;;;;;;;17.90;48.50;;;;;;5006545;28;19993;-62
2021/03/28 05:52:58;;;;;;;;;;;17.90;48.50;;;;;;4984872;28;20257;-62
2021/03/28 05:55:26;;;;;;;;;;;17.90;48.50;;;;;;4987231;28;19944;-62
2021/03/28 05:58:04;;;;;;;;;;;17.90;48.50;;;;;;4980349;28;19914;-62
2021/03/28 06:00:48;;;;;;;;;;;17.90;48.50;;;;;;4968187;28;19925;-62
2021/03/28 06:03:17;;;;;;;;;;;17.90;48.50;;;;;;4986812;28;19914;-62
2021/03/28 06:06:01;;;;;;;;;;;18.00;48.50;;;;;;4993097;28;19957;-62
2021/03/28 06:08:26;;;;;;;;;;;17.90;48.40;;;;;;4972783;28;19926;-62
2021/03/28 06:11:07;;;;;;;;;;;17.90;48.40;;;;;;4969628;28;20005;-62
2021/03/28 06:13:32;;;;;;;;;;;17.90;48.40;;;;;;5006005;28;20495;-62
2021/03/28 06:16:13;;;;;;;;;;;18.00;48.40;;;;;;5005993;28;19999;-62
2021/03/28 06:19:01;;;;;;;;;;;17.90;48.40;;;;;;5004263;28;20019;-61
2021/03/28 06:21:31;;;;;;;;;;;17.90;48.40;;;;;;5004373;28;19913;-62
2021/03/28 06:24:04;;;;;;;;;;;17.90;48.30;;;;;;5004458;28;19983;-62
2021/03/28 06:26:55;;;;;;;;;;;18.00;48.40;;;;;;5005047;28;19916;-62
2021/03/28 06:29:29;;;;;;;;;;;17.90;48.30;;;;;;5005838;28;19910;-62
2021/03/28 06:32:14;;;;;;;;;;;18.00;48.30;;;;;;5006279;28;19928;-62
2021/03/28 06:34:39;;;;;;;;;;;17.90;48.40;;;;;;4986133;28;20466;-62
2021/03/28 06:37:24;;;;;;;;;;;18.00;48.30;;;;;;4989302;28;19914;-62
2021/03/28 06:40:08;;;;;;;;;;;18.00;48.40;;;;;;4986251;28;19922;-62
2021/03/28 06:42:52;;;;;;;;;;;18.00;48.40;;;;;;5004317;28;19937;-62
2021/03/28 06:45:37;;;;;;;;;;;18.00;48.40;;;;;;5005174;28;19916;-62
2021/03/28 06:48:23;;;;;;;;;;;18.00;48.40;;;;;;4997589;28;19920;-62
2021/03/28 06:50:58;;;;;;;;;;;17.90;48.40;;;;;;5004827;28;20000;-61
2021/03/28 06:53:39;;;;;;;;;;;17.90;48.40;;;;;;5003145;28;20004;-60
2021/03/28 06:56:16;;;;;;;;;;;18.00;48.40;;;;;;4989012;28;19964;-62
2021/03/28 06:58:53;;;;;;;;;;;18.00;48.50;;;;;;4985725;28;19909;-63
2021/03/28 07:01:23;;;;;;;;;;;18.00;48.50;;;;;;4979520;28;19945;-64
2021/03/28 07:03:51;;;;;;;;;;;18.00;48.70;;;;;;5009715;28;19925;-63
2021/03/28 07:06:35;;;;;;;;;;;18.00;49.10;;;;;;5017768;28;20384;-62
2021/03/28 07:09:20;;;;;;;;;;;17.90;49.30;;;;;;4967691;28;19910;-62
2021/03/28 07:11:51;;;;;;;;;;;17.90;49.60;;;;;;4982229;28;20376;-63
2021/03/28 07:14:44;;;;;;;;;;;17.80;50.00;;;;;;5005207;28;20052;-62
2021/03/28 07:17:12;;;;;;;;;;;17.70;50.20;;;;;;5002395;28;20484;-62
2021/03/28 07:19:56;;;;;;;;;;;17.70;50.50;;;;;;4986002;28;19929;-63
2021/03/28 07:22:41;;;;;;;;;;;17.70;50.60;;;;;;5010732;28;19984;-63
2021/03/28 07:25:07;;;;;;;;;;;17.60;50.70;;;;;;4978055;28;20482;-64
2021/03/28 07:27:51;;;;;;;;;;;17.60;50.80;;;;;;4989687;28;19914;-61
2021/03/28 07:30:31;;;;;;;;;;;17.60;51.00;;;;;;5003201;28;19917;-63
2021/03/28 07:33:15;;;;;;;;;;;17.70;51.10;;;;;;5003774;28;19925;-63
2021/03/28 07:36:01;;;;;;;;;;;17.70;51.20;;;;;;4995305;28;19914;-62
2021/03/28 07:38:45;;;;;;;;;;;17.70;51.30;;;;;;4970866;28;19968;-62
2021/03/28 07:41:26;;;;;;;;;;;17.70;51.30;;;;;;5004742;28;19916;-62
2021/03/28 07:44:10;;;;;;;;;;;17.70;51.40;;;;;;4974878;28;19914;-62
2021/03/28 07:46:59;;;;;;;;;;;17.70;51.50;;;;;;4991538;28;19917;-62
2021/03/28 07:49:31;;;;;;;;;;;17.70;51.60;;;;;;5003035;28;19914;-62
2021/03/28 07:52:15;;;;;;;;;;;17.70;51.70;;;;;;5004035;28;20487;-62
2021/03/28 07:54:59;;;;;;;;;;;17.70;51.70;;;;;;5004245;28;19944;-62
2021/03/28 07:57:33;;;;;;;;;;;17.70;51.80;;;;;;5004706;28;19952;-62
2021/03/28 08:00:18;;;;;;;;;;;17.80;51.90;;;;;;5004419;28;19921;-63
2021/03/28 08:02:52;;;;;;;;;;;17.80;51.90;;;;;;4999360;28;20009;-62
2021/03/28 08:05:26;;;;;;;;;;;17.80;52.10;;;;;;4983752;28;19913;-62
2021/03/28 08:07:52;;;;;;;;;;;17.80;52.10;;;;;;4990817;28;19941;-62
2021/03/28 08:10:36;;;;;;;;;;;17.80;52.20;;;;;;4987705;28;20363;-62
2021/03/28 08:13:21;;;;;;;;;;;17.80;52.10;;;;;;4982691;28;19914;-61
2021/03/28 08:16:05;;;;;;;;;;;17.80;52.20;;;;;;5003545;28;19968;-62
2021/03/28 08:18:35;;;;;;;;;;;17.80;52.40;;;;;;4992944;28;19968;-62
2021/03/28 08:21:01;;;;;;;;;;;17.80;52.40;;;;;;4983432;28;19913;-62
2021/03/28 08:23:29;;;;;;;;;;;17.80;52.40;;;;;;4986249;28;20478;-62
2021/03/28 08:25:57;;;;;;;;;;;17.90;52.50;;;;;;4984680;28;19913;-64
2021/03/28 08:28:41;;;;;;;;;;;17.90;52.40;;;;;;5016317;28;19910;-61
2021/03/28 08:31:24;;;;;;;;;;;17.90;52.40;;;;;;5004439;28;20004;-62
2021/03/28 08:34:08;;;;;;;;;;;17.90;52.60;;;;;;5002498;28;19918;-63
2021/03/28 08:36:38;;;;;;;;;;;17.90;52.70;;;;;;5003665;28;19913;-62
2021/03/28 08:39:06;;;;;;;;;;;17.90;52.80;;;;;;5002728;28;19913;-63
2021/03/28 08:41:35;;;;;;;;;;;17.90;52.60;;;;;;5004098;28;20288;-62
2021/03/28 08:44:12;;;;;;;;;;;17.90;52.50;;;;;;4988772;28;19917;-62
2021/03/28 08:46:48;;;;;;;;;;;17.90;52.50;;;;;;4994623;28;19910;-62
2021/03/28 08:49:16;;;;;;;;;;;17.90;52.40;;;;;;5002608;28;20295;-62
2021/03/28 08:51:54;;;;;;;;;;;17.90;52.20;;;;;;5002498;28;19914;-62
2021/03/28 08:54:19;;;;;;;;;;;17.90;52.00;;;;;;5002941;28;19917;-62
2021/03/28 08:57:03;;;;;;;;;;;17.90;51.90;;;;;;5002634;28;19963;-63
2021/03/28 08:59:43;;;;;;;;;;;17.90;51.80;;;;;;5004581;28;19964;-62
2021/03/28 09:02:28;;;;;;;;;;;17.90;51.80;;;;;;5003792;28;21341;-62
2021/03/28 09:05:12;;;;;;;;;;;17.90;51.80;;;;;;5006155;28;19909;-62
2021/03/28 09:07:42;;;;;;;;;;;17.90;51.60;;;;;;5007866;28;19917;-62
2021/03/28 09:10:07;;;;;;;;;;;17.90;51.60;;;;;;5007538;28;20004;-62
2021/03/28 09:12:36;;;;;;;;;;;17.90;51.50;;;;;;5004497;28;19985;-62
2021/03/28 09:15:20;;;;;;;;;;;17.90;51.60;;;;;;4988066;28;19914;-63
2021/03/28 09:17:45;;;;;;;;;;;18.00;51.60;;;;;;4987413;28;19918;-62
2021/03/28 09:20:11;;;;;;;;;;;18.00;51.60;;;;;;4991070;28;19924;-61
2021/03/28 09:22:43;;;;;;;;;;;18.10;51.90;;;;;;5007892;28;20490;-62
2021/03/28 09:25:13;;;;;;;;;;;18.10;52.20;;;;;;5005209;28;19928;-63
2021/03/28 09:27:57;;;;;;;;;;;18.10;52.40;;;;;;5005570;28;20372;-64
2021/03/28 09:30:27;;;;;;;;;;;18.10;52.50;;;;;;5006323;28;19940;-62
2021/03/28 09:32:52;;;;;;;;;;;18.10;52.60;;;;;;5006043;28;19914;-65
2021/03/28 09:35:38;;;;;;;;;;;18.10;52.50;;;;;;5006841;28;20403;-63
2021/03/28 09:38:22;;;;;;;;;;;18.10;52.30;;;;;;5004916;28;20421;-63
2021/03/28 09:40:52;;;;;;;;;;;18.20;52.30;;;;;;5007686;28;19920;-61
2021/03/28 09:43:37;;;;;;;;;;;18.20;52.30;;;;;;4990234;28;19968;-63
2021/03/28 09:46:16;;;;;;;;;;;18.20;52.40;;;;;;5006609;28;20428;-63
2021/03/28 09:48:58;;;;;;;;;;;18.20;52.30;;;;;;5006354;28;20020;-62
2021/03/28 09:51:29;;;;;;;;;;;18.20;52.30;;;;;;5007840;28;19913;-63
2021/03/28 09:54:14;;;;;;;;;;;18.20;52.30;;;;;;5007732;28;19936;-62
2021/03/28 09:56:58;;;;;;;;;;;18.20;52.30;;;;;;5002646;28;19909;-63
2021/03/28 09:59:42;;;;;;;;;;;18.20;52.30;;;;;;4989081;28;19914;-63
2021/03/28 10:02:14;;;;;;;;;;;18.20;52.40;;;;;;5007178;28;20009;-62
2021/03/28 10:04:58;;;;;;;;;;;18.20;52.60;;;;;;5005345;28;20412;-63
2021/03/28 10:07:25;;;;;;;;;;;18.20;52.60;;;;;;5007369;28;20286;-62
2021/03/28 10:10:10;;;;;;;;;;;18.20;52.60;;;;;;5005666;28;19913;-61
2021/03/28 10:12:42;;;;;;;;;;;18.20;52.70;;;;;;5006586;28;19948;-62
2021/03/28 10:15:20;;;;;;;;;;;18.20;52.60;;;;;;4998468;28;19993;-62
2021/03/28 10:18:04;;;;;;;;;;;18.20;52.60;;;;;;5006485;28;19920;-63
2021/03/28 10:20:35;;;;;;;;;;;18.20;52.70;;;;;;5005992;28;19996;-63
2021/03/28 10:23:06;;;;;;;;;;;18.20;52.70;;;;;;5005795;28;20388;-62
2021/03/28 10:25:31;;;;;;;;;;;18.20;52.70;;;;;;5007277;28;19979;-63
2021/03/28 10:28:00;;;;;;;;;;;18.20;52.60;;;;;;5006254;28;19960;-63
2021/03/28 10:30:25;;;;;;;;;;;18.20;52.50;;;;;;5008283;28;19960;-62
2021/03/28 10:33:00;;;;;;;;;;;18.20;52.30;;;;;;5026479;28;19949;-62
2021/03/28 10:35:25;;;;;;;;;;;18.30;52.20;;;;;;5016949;28;19913;-63
2021/03/28 10:37:57;;;;;;;;;;;18.20;52.30;;;;;;5004962;28;20316;-62
2021/03/28 10:40:25;;;;;;;;;;;18.20;52.30;;;;;;5004597;28;19940;-64
2021/03/28 10:43:10;;;;;;;;;;;18.20;52.30;;;;;;5006519;28;19941;-64
2021/03/28 10:45:38;;;;;;;;;;;18.20;52.30;;;;;;5005757;28;19929;-64
2021/03/28 10:48:30;;;;;;;;;;;18.20;52.10;;;;;;5004758;28;19913;-62
2021/03/28 10:51:01;;;;;;;;;;;18.20;52.10;;;;;;4999574;28;20418;-64
2021/03/28 10:53:39;;;;;;;;;;;18.20;52.10;;;;;;4986487;28;19921;-64
2021/03/28 10:56:08;;;;;;;;;;;18.20;52.10;;;;;;5004682;28;20315;-62
2021/03/28 10:58:52;;;;;;;;;;;18.20;52.10;;;;;;5006280;28;20007;-63
2021/03/28 11:01:38;;;;;;;;;;;18.10;52.50;;;;;;5005398;28;19921;-64
2021/03/28 11:04:22;;;;;;;;;;;18.20;53.10;;;;;;5004781;28;19975;-63
2021/03/28 11:07:07;;;;;;;;;;;18.10;53.40;;;;;;4998087;28;19933;-62
2021/03/28 11:09:32;;;;;;;;;;;18.10;53.60;;;;;;5005556;28;19940;-61
2021/03/28 11:12:00;;;;;;;;;;;18.10;53.50;;;;;;5005292;28;20408;-64
2021/03/28 11:14:29;;;;;;;;;;;18.10;53.50;;;;;;5005211;28;19914;-63
2021/03/28 11:17:13;;;;;;;;;;;18.10;53.60;;;;;;5005538;28;19917;-62
2021/03/28 11:19:54;;;;;;;;;;;18.10;53.60;;;;;;4978845;28;20324;-62
2021/03/28 11:22:22;;;;;;;;;;;18.10;53.40;;;;;;4989237;28;19920;-63
2021/03/28 11:24:56;;;;;;;;;;;18.10;53.10;;;;;;5006745;28;19924;-61
2021/03/28 11:27:40;;;;;;;;;;;18.10;52.90;;;;;;4974516;28;20040;-62
2021/03/28 11:30:08;;;;;;;;;;;18.10;52.70;;;;;;4986896;28;19921;-62
2021/03/28 11:32:49;;;;;;;;;;;18.20;52.50;;;;;;5007816;28;20000;-62
2021/03/28 11:35:14;;;;;;;;;;;18.10;52.30;;;;;;4997993;28;19913;-63
2021/03/28 11:37:42;;;;;;;;;;;18.10;52.50;;;;;;5004767;28;19913;-61
2021/03/28 11:40:07;;;;;;;;;;;18.10;52.90;;;;;;5004315;28;19941;-63
2021/03/28 11:42:32;;;;;;;;;;;18.10;53.50;;;;;;5005270;28;20024;-65
2021/03/28 11:45:02;;;;;;;;;;;18.10;53.50;;;;;;5005346;28;20373;-62
2021/03/28 11:47:29;;;;;;;;;;;18.10;53.40;;;;;;5004839;28;19918;-64
2021/03/28 11:50:14;;;;;;;;;;;18.10;53.40;;;;;;5003157;28;19913;-63
2021/03/28 11:52:58;;;;;;;;;;;18.10;53.50;;;;;;4997021;28;19914;-63
2021/03/28 11:55:24;;;;;;;;;;;18.20;53.00;;;;;;5004955;28;19914;-63
2021/03/28 11:58:05;;;;;;;;;;;18.10;52.90;;;;;;5005035;28;20568;-63
2021/03/28 12:00:40;;;;;;;;;;;18.10;52.70;;;;;;5004909;28;19986;-63
2021/03/28 12:03:23;;;;;;;;;;;18.10;52.10;;;;;;4994630;28;19925;-63
2021/03/28 12:06:03;;;;;;;;;;;18.10;52.30;;;;;;5003049;28;20470;-63
2021/03/28 12:08:44;;;;;;;;;;;18.10;51.60;;;;;;5004533;28;20057;-63
2021/03/28 12:11:27;;;;;;;;;;;18.10;51.80;;;;;;5004936;28;20703;-62
2021/03/28 12:13:53;;;;;;;;;;;18.00;51.50;;;;;;4999139;28;19913;-62
2021/03/28 12:16:19;;;;;;;;;;;18.00;51.40;;;;;;5002849;28;19920;-64
2021/03/28 12:18:45;;;;;;;;;;;18.10;51.40;;;;;;5004909;28;19917;-62
2021/03/28 12:21:11;;;;;;;;;;;18.00;51.10;;;;;;5003221;28;19919;-62
2021/03/28 12:23:36;;;;;;;;;;;18.00;51.00;;;;;;5004554;28;20358;-62
2021/03/28 12:26:06;;;;;;;;;;;18.00;51.00;;;;;;5003837;28;20423;-60
2021/03/28 12:28:46;;;;;;;;;;;18.00;50.60;;;;;;5002399;28;19914;-61
2021/03/28 12:31:27;;;;;;;;;;;18.00;51.00;;;;;;5003654;28;20522;-62
2021/03/28 12:34:08;;;;;;;;;;;18.00;51.10;;;;;;4997816;28;19967;-62
2021/03/28 12:36:45;;;;;;;;;;;18.00;51.00;;;;;;5022265;28;19909;-63
2021/03/28 12:39:11;;;;;;;;;;;18.00;52.30;;;;;;5020227;28;19914;-63
2021/03/28 12:41:37;;;;;;;;;;;18.00;53.00;;;;;;5002901;28;19936;-63
2021/03/28 12:44:05;;;;;;;;;;;18.00;53.50;;;;;;5003668;28;19971;-62
2021/03/28 12:46:31;;;;;;;;;;;18.00;53.80;;;;;;5005209;28;19921;-62
2021/03/28 12:49:08;;;;;;;;;;;18.00;54.10;;;;;;5005170;28;19913;-62
2021/03/28 12:51:37;;;;;;;;;;;18.00;54.20;;;;;;5006407;28;19918;-63
2021/03/28 12:54:21;;;;;;;;;;;18.00;54.40;;;;;;5006567;28;19921;-64
2021/03/28 12:56:47;;;;;;;;;;;18.00;54.50;;;;;;5006361;28;19917;-64
2021/03/28 12:59:32;;;;;;;;;;;18.10;54.40;;;;;;5008270;28;19967;-63
2021/03/28 13:02:16;;;;;;;;;;;18.10;54.20;;;;;;5002961;28;20372;-64
2021/03/28 13:04:47;;;;;;;;;;;18.10;54.00;;;;;;4991957;28;19941;-64
2021/03/28 13:07:30;;;;;;;;;;;18.10;53.90;;;;;;4983891;28;19918;-64
2021/03/28 13:09:56;;;;;;;;;;;18.10;53.80;;;;;;5011367;28;19914;-64
2021/03/28 13:12:22;;;;;;;;;;;18.10;53.80;;;;;;4979467;28;19964;-64
2021/03/28 13:14:49;;;;;;;;;;;18.10;53.70;;;;;;5008064;28;19925;-63
2021/03/28 13:17:14;;;;;;;;;;;18.10;54.30;;;;;;5005593;28;19914;-65
2021/03/28 13:19:40;;;;;;;;;;;18.10;53.60;;;;;;4977156;28;19940;-65
2021/03/28 13:22:24;;;;;;;;;;;18.10;53.60;;;;;;4986925;28;19917;-65
2021/03/28 13:24:50;;;;;;;;;;;18.10;53.70;;;;;;4980858;28;19932;-64
2021/03/28 13:27:18;;;;;;;;;;;18.10;53.60;;;;;;5009850;28;19913;-63
2021/03/28 13:29:51;;;;;;;;;;;18.10;53.60;;;;;;5007201;28;20408;-64
2021/03/28 13:32:16;;;;;;;;;;;18.10;53.50;;;;;;5006620;28;20016;-64
2021/03/28 13:34:45;;;;;;;;;;;18.10;53.70;;;;;;4978797;28;20025;-65
2021/03/28 13:37:13;;;;;;;;;;;18.10;53.60;;;;;;5005923;28;19945;-65
2021/03/28 13:39:39;;;;;;;;;;;18.00;53.80;;;;;;5006303;28;20376;-64
2021/03/28 13:42:25;;;;;;;;;;;18.10;53.80;;;;;;5004713;28;19913;-64
2021/03/28 13:44:55;;;;;;;;;;;18.10;53.80;;;;;;5000314;28;19913;-63
2021/03/28 13:47:33;;;;;;;;;;;18.10;53.90;;;;;;4987520;28;20304;-65
2021/03/28 13:49:59;;;;;;;;;;;18.10;53.90;;;;;;5004024;28;20047;-64
2021/03/28 13:52:25;;;;;;;;;;;18.10;53.80;;;;;;5004530;28;19921;-65
2021/03/28 13:55:02;;;;;;;;;;;18.00;53.80;;;;;;5003760;28;19913;-62
2021/03/28 13:57:29;;;;;;;;;;;18.10;54.10;;;;;;5005417;28;20283;-63
2021/03/28 13:59:58;;;;;;;;;;;18.10;54.00;;;;;;5004736;28;20570;-62
2021/03/28 14:02:24;;;;;;;;;;;18.10;53.80;;;;;;5005668;28;19963;-62
2021/03/28 14:05:00;;;;;;;;;;;18.10;53.60;;;;;;5003766;28;19925;-62
2021/03/28 14:07:41;;;;;;;;;;;18.10;53.40;;;;;;5004148;28;20370;-63
2021/03/28 14:10:09;;;;;;;;;;;18.10;53.30;;;;;;5006109;28;19913;-62
2021/03/28 14:12:35;;;;;;;;;;;18.10;53.10;;;;;;5006301;28;19967;-62
2021/03/28 14:15:21;;;;;;;;;;;18.00;52.50;;;;;;5006163;28;19921;-62
2021/03/28 14:17:51;;;;;;;;;;;18.10;52.80;;;;;;5005110;28;19917;-63
2021/03/28 14:20:22;;;;;;;;;;;18.10;52.60;;;;;;5003386;28;20360;-62
2021/03/28 14:22:51;;;;;;;;;;;18.10;52.40;;;;;;5004294;28;21531;-62
2021/03/28 14:25:33;;;;;;;;;;;18.00;52.20;;;;;;5005922;28;19926;-63
2021/03/28 14:28:03;;;;;;;;;;;18.00;52.00;;;;;;4998372;28;19921;-63
2021/03/28 14:30:32;;;;;;;;;;;18.00;51.80;;;;;;5003598;28;19957;-62
2021/03/28 14:32:58;;;;;;;;;;;18.10;51.70;;;;;;5005183;28;20012;-63
2021/03/28 14:35:24;;;;;;;;;;;18.00;51.70;;;;;;4997953;28;20284;-64
2021/03/28 14:37:49;;;;;;;;;;;18.00;51.60;;;;;;5005602;28;19923;-65
2021/03/28 14:40:28;;;;;;;;;;;18.00;51.50;;;;;;5004620;28;19913;-63
2021/03/28 14:43:00;;;;;;;;;;;18.00;51.20;;;;;;5003969;28;19913;-63
2021/03/28 14:45:29;;;;;;;;;;;18.00;51.20;;;;;;5005696;28;20475;-62
2021/03/28 14:47:54;;;;;;;;;;;18.10;51.20;;;;;;5004096;28;20435;-63
2021/03/28 14:50:23;;;;;;;;;;;18.00;51.20;;;;;;5004329;28;19925;-62
2021/03/28 14:52:51;;;;;;;;;;;18.00;51.20;;;;;;5006094;28;20384;-61
2021/03/28 14:55:23;;;;;;;;;;;18.00;51.20;;;;;;5005218;28;20000;-62
2021/03/28 14:58:03;;;;;;;;;;;18.00;51.10;;;;;;4999014;28;19913;-62
2021/03/28 15:00:31;;;;;;;;;;;18.00;51.00;;;;;;5003653;28;19928;-63